Time,TemperatureF,DewpointF,PressureIn,WindDirection,WindDirectionDegrees,WindSpeedMPH,WindSpeedGustMPH,Humidity,HourlyPrecipIn,Conditions,Clouds,dailyrainin,SoftwareType,DateUTC
2013-03-19 00:00:00,67.5,63.5,29.93,SSW,203,0.0,0.0,87,0.00,,---,0.00,VWS V14.01,2013-03-19 04:00:00,
2013-03-19 00:05:00,67.2,63.2,29.93,SSW,203,0.0,0.0,87,0.00,,---,0.00,VWS V14.01,2013-03-19 04:05:00,
2013-03-19 00:10:00,66.9,62.9,29.93,SSW,203,0.0,0.0,87,0.00,,---,0.00,VWS V14.01,2013-03-19 04:10:00,
2013-03-19 00:15:00,66.6,62.6,29.93,SSW,203,0.0,0.0,87,0.00,,---,0.00,VWS V14.01,2013-03-19 04:15:00,
2013-03-19 00:20:00,66.4,63.1,29.93,SSW,203,0.0,0.0,89,0.00,,---,0.00,VWS V14.01,2013-03-19 04:20:00,
2013-03-19 00:25:00,66.2,62.9,29.93,SSW,203,0.0,0.0,89,0.00,,---,0.00,VWS V14.01,2013-03-19 04:25:00,
2013-03-19 00:30:00,65.9,62.6,29.94,SSW,203,0.0,0.0,89,0.00,,---,0.00,VWS V14.01,2013-03-19 04:30:00,
2013-03-19 00:35:00,65.5,62.2,29.93,SSW,200,0.0,0.0,89,0.00,,---,0.00,VWS V14.01,2013-03-19 04:35:00,
2013-03-19 00:40:00,65.2,62.2,29.93,SSW,200,0.0,0.0,90,0.00,,---,0.00,VWS V14.01,2013-03-19 04:40:00,
2013-03-19 00:45:00,65.0,62.0,29.93,SSW,200,0.0,0.0,90,0.00,,---,0.00,VWS V14.01,2013-03-19 04:45:00,
2013-03-19 00:50:00,64.8,61.8,29.93,SSW,200,0.0,0.0,90,0.00,,---,0.00,VWS V14.01,2013-03-19 04:50:00,
2013-03-19 00:55:00,64.6,61.9,29.93,SSW,200,0.0,0.0,91,0.00,,---,0.00,VWS V14.01,2013-03-19 04:55:00,
2013-03-19 01:00:00,64.3,61.6,29.92,SSW,208,0.0,0.0,91,0.00,,---,0.00,VWS V14.01,2013-03-19 05:00:00,
2013-03-19 01:05:00,64.1,61.7,29.92,SSW,208,0.0,0.0,92,0.00,,---,0.00,VWS V14.01,2013-03-19 05:05:00,
2013-03-19 01:10:00,64.1,61.7,29.93,SSW,208,0.0,0.0,92,0.00,,---,0.00,VWS V14.01,2013-03-19 05:10:00,
2013-03-19 01:15:00,63.9,61.5,29.92,SSW,210,0.0,0.0,92,0.00,,---,0.00,VWS V14.01,2013-03-19 05:15:00,
2013-03-19 01:20:00,63.7,61.3,29.92,SSW,210,0.0,0.0,92,0.00,,---,0.00,VWS V14.01,2013-03-19 05:20:00,
2013-03-19 01:25:00,63.6,61.5,29.93,SW,225,0.0,0.0,93,0.00,,---,0.00,VWS V14.01,2013-03-19 05:25:00,
2013-03-19 01:30:00,63.8,62.0,29.93,WSW,256,0.0,0.0,94,0.00,,---,0.00,VWS V14.01,2013-03-19 05:30:00,
2013-03-19 01:35:00,64.0,62.2,29.94,WSW,246,0.0,0.0,94,0.00,,---,0.00,VWS V14.01,2013-03-19 05:35:00,
2013-03-19 01:40:00,64.2,62.4,29.94,WSW,246,0.0,0.0,94,0.00,,---,0.00,VWS V14.01,2013-03-19 05:40:00,
2013-03-19 01:41:00,64.3,62.5,29.94,WSW,245,0.0,0.0,94,0.00,,---,0.00,VWS V14.01,2013-03-19 05:41:00,
2013-03-19 01:46:00,64.5,62.7,29.94,WSW,252,1.0,2.0,94,0.00,,---,0.00,VWS V14.01,2013-03-19 05:46:00,
2013-03-19 01:50:00,64.6,62.8,29.94,West,267,0.0,2.0,94,0.00,,---,0.00,VWS V14.01,2013-03-19 05:50:00,
2013-03-19 01:51:00,64.7,62.9,29.94,West,271,1.0,1.0,94,0.00,,---,0.00,VWS V14.01,2013-03-19 05:51:00,
2013-03-19 01:56:00,64.8,63.0,29.94,WSW,255,0.0,2.0,94,0.00,,---,0.00,VWS V14.01,2013-03-19 05:56:00,
2013-03-19 02:00:00,64.8,62.7,29.94,WSW,255,0.0,2.0,93,0.00,,---,0.00,VWS V14.01,2013-03-19 06:00:00,
2013-03-19 02:01:00,64.8,62.7,29.94,WSW,255,0.0,0.0,93,0.00,,---,0.00,VWS V14.01,2013-03-19 06:01:00,
2013-03-19 02:06:00,64.7,62.6,29.94,WSW,255,0.0,0.0,93,0.00,,---,0.00,VWS V14.01,2013-03-19 06:06:00,
2013-03-19 02:10:00,64.6,62.5,29.94,WSW,255,0.0,0.0,93,0.00,,---,0.00,VWS V14.01,2013-03-19 06:10:00,
2013-03-19 02:11:00,64.5,62.4,29.93,WSW,255,0.0,0.0,93,0.00,,---,0.00,VWS V14.01,2013-03-19 06:11:00,
2013-03-19 02:16:00,64.4,62.3,29.93,WSW,255,0.0,0.0,93,0.00,,---,0.00,VWS V14.01,2013-03-19 06:16:00,
2013-03-19 02:20:00,64.1,62.0,29.93,WSW,255,0.0,0.0,93,0.00,,---,0.00,VWS V14.01,2013-03-19 06:20:00,
2013-03-19 02:21:00,64.0,61.9,29.94,WSW,255,0.0,0.0,93,0.00,,---,0.00,VWS V14.01,2013-03-19 06:21:00,
2013-03-19 02:26:00,63.8,61.7,29.94,WSW,255,0.0,0.0,93,0.00,,---,0.00,VWS V14.01,2013-03-19 06:26:00,
2013-03-19 02:30:00,63.7,61.6,29.94,WSW,255,0.0,0.0,93,0.00,,---,0.00,VWS V14.01,2013-03-19 06:30:00,
2013-03-19 02:31:00,63.6,61.8,29.94,WSW,255,0.0,0.0,94,0.00,,---,0.00,VWS V14.01,2013-03-19 06:31:00,
2013-03-19 02:36:00,63.7,62.0,29.95,WSW,255,0.0,0.0,94,0.00,,---,0.00,VWS V14.01,2013-03-19 06:36:00,
2013-03-19 02:40:00,63.6,61.8,29.94,WSW,255,0.0,0.0,94,0.00,,---,0.00,VWS V14.01,2013-03-19 06:40:00,
2013-03-19 02:41:00,63.6,61.8,29.94,WSW,255,0.0,0.0,94,0.00,,---,0.00,VWS V14.01,2013-03-19 06:41:00,
2013-03-19 02:46:00,63.5,61.8,29.94,WSW,255,0.0,0.0,94,0.00,,---,0.00,VWS V14.01,2013-03-19 06:46:00,
2013-03-19 02:50:00,63.4,61.7,29.94,WSW,255,0.0,0.0,94,0.00,,---,0.00,VWS V14.01,2013-03-19 06:50:00,
2013-03-19 02:51:00,63.3,61.5,29.94,WSW,255,0.0,0.0,94,0.00,,---,0.00,VWS V14.01,2013-03-19 06:51:00,
2013-03-19 02:56:00,63.1,61.3,29.94,WSW,255,0.0,0.0,94,0.00,,---,0.00,VWS V14.01,2013-03-19 06:56:00,
2013-03-19 03:00:00,63.0,61.2,29.94,WSW,255,0.0,0.0,94,0.00,,---,0.00,VWS V14.01,2013-03-19 07:00:00,
2013-03-19 03:01:00,63.0,61.2,29.94,WSW,255,0.0,0.0,94,0.00,,---,0.00,VWS V14.01,2013-03-19 07:01:00,
2013-03-19 03:06:00,63.0,61.5,29.94,WSW,255,0.0,0.0,95,0.00,,---,0.00,VWS V14.01,2013-03-19 07:06:00,
2013-03-19 03:10:00,63.0,61.5,29.94,WSW,255,0.0,0.0,95,0.00,,---,0.00,VWS V14.01,2013-03-19 07:10:00,
2013-03-19 03:11:00,63.0,61.5,29.94,WSW,255,0.0,0.0,95,0.00,,---,0.00,VWS V14.01,2013-03-19 07:11:00,
2013-03-19 03:16:00,62.9,61.5,29.94,WSW,252,0.0,0.0,95,0.00,,---,0.00,VWS V14.01,2013-03-19 07:16:00,
2013-03-19 03:20:00,63.0,61.5,29.94,WSW,248,0.0,0.0,95,0.00,,---,0.00,VWS V14.01,2013-03-19 07:20:00,
2013-03-19 03:21:00,63.1,61.7,29.94,WSW,248,0.0,0.0,95,0.00,,---,0.00,VWS V14.01,2013-03-19 07:21:00,
2013-03-19 03:26:00,63.2,61.8,29.94,WSW,253,0.0,1.0,95,0.00,,---,0.00,VWS V14.01,2013-03-19 07:26:00,
2013-03-19 03:30:00,63.3,61.8,29.94,WSW,246,0.0,1.0,95,0.00,,---,0.00,VWS V14.01,2013-03-19 07:30:00,
2013-03-19 03:31:00,63.3,61.8,29.94,WSW,246,0.0,0.0,95,0.00,,---,0.00,VWS V14.01,2013-03-19 07:31:00,
2013-03-19 03:36:00,63.3,61.8,29.93,WSW,246,0.0,0.0,95,0.00,,---,0.00,VWS V14.01,2013-03-19 07:36:00,
2013-03-19 03:40:00,63.3,61.8,29.93,WSW,246,0.0,0.0,95,0.00,,---,0.00,VWS V14.01,2013-03-19 07:40:00,
2013-03-19 03:41:00,63.2,61.8,29.94,WSW,245,0.0,0.0,95,0.00,,---,0.00,VWS V14.01,2013-03-19 07:41:00,
2013-03-19 03:46:00,63.3,62.1,29.94,WSW,249,0.0,0.0,96,0.00,,---,0.00,VWS V14.01,2013-03-19 07:46:00,
2013-03-19 03:50:00,63.3,62.1,29.94,West,263,1.0,3.0,96,0.00,,---,0.00,VWS V14.01,2013-03-19 07:50:00,
2013-03-19 03:51:00,63.4,62.2,29.94,SW,229,0.0,2.0,96,0.00,,---,0.00,VWS V14.01,2013-03-19 07:51:00,
2013-03-19 03:56:00,63.5,62.3,29.94,SW,215,1.0,2.0,96,0.00,,---,0.00,VWS V14.01,2013-03-19 07:56:00,
2013-03-19 04:00:00,63.5,62.3,29.94,SSW,207,0.0,2.0,96,0.00,,---,0.00,VWS V14.01,2013-03-19 08:00:00,
2013-03-19 04:01:00,63.5,62.3,29.94,WSW,237,0.0,1.0,96,0.00,,---,0.00,VWS V14.01,2013-03-19 08:01:00,
2013-03-19 04:06:00,63.5,62.3,29.94,SSE,155,0.0,1.0,96,0.00,,---,0.00,VWS V14.01,2013-03-19 08:06:00,
2013-03-19 04:10:00,63.5,62.3,29.94,SE,124,0.0,1.0,96,0.00,,---,0.00,VWS V14.01,2013-03-19 08:10:00,
2013-03-19 04:11:00,63.5,62.3,29.94,ESE,120,0.0,1.0,96,0.00,,---,0.00,VWS V14.01,2013-03-19 08:11:00,
2013-03-19 04:17:00,63.6,62.4,29.93,ESE,102,0.0,1.0,96,0.00,,---,0.00,VWS V14.01,2013-03-19 08:17:00,
2013-03-19 04:20:00,63.5,62.3,29.92,ESE,102,0.0,1.0,96,0.00,,---,0.00,VWS V14.01,2013-03-19 08:20:00,
2013-03-19 04:22:00,63.5,62.3,29.92,ESE,102,0.0,1.0,96,0.00,,---,0.00,VWS V14.01,2013-03-19 08:22:00,
2013-03-19 04:27:00,63.4,62.2,29.90,ESE,110,1.0,1.0,96,0.00,,---,0.00,VWS V14.01,2013-03-19 08:27:00,
2013-03-19 04:30:00,63.4,62.2,29.90,ESE,110,0.0,1.0,96,0.00,,---,0.00,VWS V14.01,2013-03-19 08:30:00,
2013-03-19 04:32:00,63.3,62.1,29.91,ENE,78,0.0,2.0,96,0.00,,---,0.00,VWS V14.01,2013-03-19 08:32:00,
2013-03-19 04:37:00,63.3,62.1,29.90,ENE,71,0.0,2.0,96,0.00,,---,0.00,VWS V14.01,2013-03-19 08:37:00,
2013-03-19 04:40:00,63.4,62.2,29.90,ESE,106,0.0,2.0,96,0.00,,---,0.00,VWS V14.01,2013-03-19 08:40:00,
2013-03-19 04:42:00,63.3,62.1,29.91,ESE,106,0.0,1.0,96,0.00,,---,0.00,VWS V14.01,2013-03-19 08:42:00,
2013-03-19 04:47:00,63.2,62.0,29.91,ESE,106,0.0,1.0,96,0.00,,---,0.00,VWS V14.01,2013-03-19 08:47:00,
2013-03-19 04:50:00,63.2,62.0,29.91,ESE,105,0.0,1.0,96,0.00,,---,0.00,VWS V14.01,2013-03-19 08:50:00,
2013-03-19 04:52:00,63.1,61.9,29.91,ESE,105,0.0,0.0,96,0.00,,---,0.00,VWS V14.01,2013-03-19 08:52:00,
2013-03-19 04:57:00,62.9,61.8,29.91,ESE,104,0.0,0.0,96,0.00,,---,0.00,VWS V14.01,2013-03-19 08:57:00,
2013-03-19 05:00:00,62.9,61.8,29.91,ESE,105,0.0,0.0,96,0.00,,---,0.00,VWS V14.01,2013-03-19 09:00:00,
2013-03-19 05:02:00,62.8,61.7,29.91,ESE,106,0.0,0.0,96,0.00,,---,0.00,VWS V14.01,2013-03-19 09:02:00,
2013-03-19 05:07:00,62.7,61.5,29.92,ESE,106,0.0,0.0,96,0.00,,---,0.00,VWS V14.01,2013-03-19 09:07:00,
2013-03-19 05:10:00,62.6,61.5,29.92,SE,140,0.0,0.0,96,0.00,,---,0.00,VWS V14.01,2013-03-19 09:10:00,
2013-03-19 05:12:00,62.6,61.5,29.93,WSW,246,0.0,0.0,96,0.00,,---,0.00,VWS V14.01,2013-03-19 09:12:00,
2013-03-19 05:17:00,62.7,61.5,29.92,WSW,246,0.0,0.0,96,0.00,,---,0.00,VWS V14.01,2013-03-19 09:17:00,
2013-03-19 05:20:00,62.8,61.9,29.92,WSW,240,0.0,0.0,97,0.00,,---,0.00,VWS V14.01,2013-03-19 09:20:00,
2013-03-19 05:22:00,62.9,62.0,29.93,WSW,240,0.0,0.0,97,0.00,,---,0.00,VWS V14.01,2013-03-19 09:22:00,
2013-03-19 05:27:00,63.0,62.1,29.94,East,96,0.0,0.0,97,0.00,,---,0.00,VWS V14.01,2013-03-19 09:27:00,
2013-03-19 05:30:00,63.1,62.2,29.93,ENE,68,0.0,1.0,97,0.00,,---,0.00,VWS V14.01,2013-03-19 09:30:00,
2013-03-19 05:32:00,63.2,62.3,29.93,East,81,1.0,1.0,97,0.00,,---,0.00,VWS V14.01,2013-03-19 09:32:00,
2013-03-19 05:37:00,63.3,62.4,29.93,East,80,1.0,2.0,97,0.00,,---,0.00,VWS V14.01,2013-03-19 09:37:00,
2013-03-19 05:40:00,63.3,62.4,29.93,ENE,66,1.0,2.0,97,0.00,,---,0.00,VWS V14.01,2013-03-19 09:40:00,
2013-03-19 05:42:00,63.3,62.4,29.92,ENE,77,1.0,3.0,97,0.00,,---,0.00,VWS V14.01,2013-03-19 09:42:00,
2013-03-19 05:47:00,63.4,62.5,29.93,ENE,77,2.0,3.0,97,0.00,,---,0.00,VWS V14.01,2013-03-19 09:47:00,
2013-03-19 05:50:00,63.4,62.5,29.93,East,79,1.0,3.0,97,0.00,,---,0.00,VWS V14.01,2013-03-19 09:50:00,
2013-03-19 05:52:00,63.4,62.5,29.93,ENE,71,2.0,2.0,97,0.00,,---,0.00,VWS V14.01,2013-03-19 09:52:00,
2013-03-19 05:57:00,63.5,62.6,29.93,ENE,74,2.0,3.0,97,0.00,,---,0.00,VWS V14.01,2013-03-19 09:57:00,
2013-03-19 06:00:00,63.5,62.6,29.93,East,84,0.0,3.0,97,0.00,,---,0.00,VWS V14.01,2013-03-19 10:00:00,
2013-03-19 06:02:00,63.5,62.6,29.93,ENE,64,3.0,4.0,97,0.00,,---,0.00,VWS V14.01,2013-03-19 10:02:00,
2013-03-19 06:07:00,63.5,62.6,29.92,East,86,1.0,4.0,97,0.00,,---,0.00,VWS V14.01,2013-03-19 10:07:00,
2013-03-19 06:10:00,63.5,62.6,29.93,East,85,0.0,4.0,97,0.00,,---,0.00,VWS V14.01,2013-03-19 10:10:00,
2013-03-19 06:12:00,63.5,62.6,29.93,East,90,2.0,3.0,97,0.00,,---,0.00,VWS V14.01,2013-03-19 10:12:00,
2013-03-19 06:17:00,63.5,62.6,29.93,ENE,77,1.0,3.0,97,0.00,,---,0.00,VWS V14.01,2013-03-19 10:17:00,
2013-03-19 06:20:00,63.5,62.6,29.94,East,89,0.0,3.0,97,0.00,,---,0.00,VWS V14.01,2013-03-19 10:20:00,
2013-03-19 06:22:00,63.6,62.7,29.95,East,96,0.0,1.0,97,0.00,,---,0.00,VWS V14.01,2013-03-19 10:22:00,
2013-03-19 06:27:00,63.6,62.7,29.96,East,96,0.0,1.0,97,0.00,,---,0.00,VWS V14.01,2013-03-19 10:27:00,
2013-03-19 06:30:00,63.7,62.8,29.96,East,96,0.0,1.0,97,0.00,,---,0.00,VWS V14.01,2013-03-19 10:30:00,
2013-03-19 06:32:00,63.7,62.8,29.96,East,87,0.0,1.0,97,0.00,,---,0.00,VWS V14.01,2013-03-19 10:32:00,
2013-03-19 06:37:00,63.6,62.7,29.96,East,83,0.0,1.0,97,0.00,,---,0.00,VWS V14.01,2013-03-19 10:37:00,
2013-03-19 06:40:00,63.5,62.6,29.95,East,83,1.0,1.0,97,0.00,,---,0.00,VWS V14.01,2013-03-19 10:40:00,
2013-03-19 06:42:00,63.4,62.2,29.95,East,83,0.0,2.0,96,0.00,,---,0.00,VWS V14.01,2013-03-19 10:42:00,
2013-03-19 06:47:00,63.3,62.1,29.95,NNE,27,1.0,2.0,96,0.00,,---,0.00,VWS V14.01,2013-03-19 10:47:00,
2013-03-19 06:50:00,63.3,62.1,29.95,NNE,27,0.0,2.0,96,0.00,,---,0.00,VWS V14.01,2013-03-19 10:50:00,
2013-03-19 06:53:00,63.1,61.9,29.96,NNE,27,0.0,0.0,96,0.00,,---,0.00,VWS V14.01,2013-03-19 10:53:00,
2013-03-19 06:58:00,62.9,61.8,29.96,NNE,27,0.0,0.0,96,0.00,,---,0.00,VWS V14.01,2013-03-19 10:58:00,
2013-03-19 07:00:00,62.8,61.7,29.96,NNE,27,0.0,0.0,96,0.00,,---,0.00,VWS V14.01,2013-03-19 11:00:00,
2013-03-19 07:03:00,62.6,61.5,29.96,NNE,28,0.0,0.0,96,0.00,,---,0.00,VWS V14.01,2013-03-19 11:03:00,
2013-03-19 07:08:00,62.4,61.2,29.95,NNE,27,0.0,1.0,96,0.00,,---,0.00,VWS V14.01,2013-03-19 11:08:00,
2013-03-19 07:10:00,62.4,61.2,29.95,NNE,27,0.0,1.0,96,0.00,,---,0.00,VWS V14.01,2013-03-19 11:10:00,
2013-03-19 07:13:00,62.2,61.0,29.95,NNE,27,0.0,0.0,96,0.00,,---,0.00,VWS V14.01,2013-03-19 11:13:00,
2013-03-19 07:18:00,62.1,61.0,29.95,NNE,27,0.0,0.0,96,0.00,,---,0.00,VWS V14.01,2013-03-19 11:18:00,
2013-03-19 07:20:00,62.0,60.8,29.95,NNE,27,0.0,0.0,96,0.00,,---,0.00,VWS V14.01,2013-03-19 11:20:00,
2013-03-19 07:23:00,61.9,60.8,29.95,NNE,27,0.0,0.0,96,0.00,,---,0.00,VWS V14.01,2013-03-19 11:23:00,
2013-03-19 07:28:00,61.8,60.9,29.95,NNE,27,0.0,0.0,97,0.00,,---,0.00,VWS V14.01,2013-03-19 11:28:00,
2013-03-19 07:30:00,61.8,60.9,29.95,NNE,27,0.0,0.0,97,0.00,,---,0.00,VWS V14.01,2013-03-19 11:30:00,
2013-03-19 07:33:00,61.7,60.8,29.95,NNE,27,0.0,0.0,97,0.00,,---,0.00,VWS V14.01,2013-03-19 11:33:00,
2013-03-19 07:38:00,61.7,60.8,29.95,NNE,28,0.0,0.0,97,0.00,,---,0.00,VWS V14.01,2013-03-19 11:38:00,
2013-03-19 07:40:00,61.7,60.8,29.95,NNE,32,1.0,1.0,97,0.00,,---,0.00,VWS V14.01,2013-03-19 11:40:00,
2013-03-19 07:43:00,61.7,60.8,29.95,NE,36,0.0,1.0,97,0.00,,---,0.00,VWS V14.01,2013-03-19 11:43:00,
2013-03-19 07:48:00,61.7,60.8,29.95,NE,36,0.0,1.0,97,0.00,,---,0.00,VWS V14.01,2013-03-19 11:48:00,
2013-03-19 07:50:00,61.7,60.8,29.95,NE,36,0.0,1.0,97,0.00,,---,0.00,VWS V14.01,2013-03-19 11:50:00,
2013-03-19 07:53:00,61.6,60.7,29.96,NE,36,0.0,0.0,97,0.00,,---,0.00,VWS V14.01,2013-03-19 11:53:00,
2013-03-19 07:58:00,61.6,60.7,29.97,NE,36,0.0,0.0,97,0.00,,---,0.00,VWS V14.01,2013-03-19 11:58:00,
2013-03-19 08:00:00,61.5,60.6,29.97,NE,36,0.0,0.0,97,0.00,,---,0.00,VWS V14.01,2013-03-19 12:00:00,
2013-03-19 08:03:00,61.6,60.7,29.97,NE,36,0.0,0.0,97,0.00,,---,0.00,VWS V14.01,2013-03-19 12:03:00,
2013-03-19 08:08:00,61.7,60.8,29.98,NE,36,0.0,0.0,97,0.00,,---,0.00,VWS V14.01,2013-03-19 12:08:00,
2013-03-19 08:10:00,61.7,60.8,29.98,SE,125,0.0,0.0,97,0.00,,---,0.00,VWS V14.01,2013-03-19 12:10:00,
2013-03-19 08:13:00,61.9,61.0,29.99,SE,125,0.0,0.0,97,0.00,,---,0.00,VWS V14.01,2013-03-19 12:13:00,
2013-03-19 08:18:00,62.2,61.3,30.00,SE,126,0.0,0.0,97,0.00,,---,0.00,VWS V14.01,2013-03-19 12:18:00,
2013-03-19 08:20:00,62.3,61.4,30.00,SE,126,0.0,0.0,97,0.00,,---,0.00,VWS V14.01,2013-03-19 12:20:00,
2013-03-19 08:23:00,62.6,62.0,30.02,WSW,240,0.0,0.0,98,0.00,,---,0.00,VWS V14.01,2013-03-19 12:23:00,
2013-03-19 08:28:00,63.1,62.5,30.02,WSW,240,0.0,0.0,98,0.00,,---,0.00,VWS V14.01,2013-03-19 12:28:00,
2013-03-19 08:30:00,63.1,62.5,30.02,WSW,240,0.0,0.0,98,0.00,,---,0.00,VWS V14.01,2013-03-19 12:30:00,
2013-03-19 08:33:00,63.4,62.8,30.02,East,87,0.0,0.0,98,0.00,,---,0.00,VWS V14.01,2013-03-19 12:33:00,
2013-03-19 08:38:00,63.7,63.1,30.03,ENE,65,0.0,1.0,98,0.00,,---,0.00,VWS V14.01,2013-03-19 12:38:00,
2013-03-19 08:40:00,63.7,63.1,30.03,ENE,72,0.0,1.0,98,0.00,,---,0.00,VWS V14.01,2013-03-19 12:40:00,
2013-03-19 08:43:00,63.7,62.8,30.03,SSE,155,0.0,1.0,97,0.00,,---,0.00,VWS V14.01,2013-03-19 12:43:00,
2013-03-19 08:48:00,63.6,62.7,30.04,SW,235,1.0,4.0,97,0.00,,---,0.00,VWS V14.01,2013-03-19 12:48:00,
2013-03-19 08:50:00,63.5,62.6,30.04,WSW,255,4.0,4.0,97,0.00,,---,0.00,VWS V14.01,2013-03-19 12:50:00,
2013-03-19 08:53:00,63.4,62.5,30.04,SW,215,1.0,5.0,97,0.00,,---,0.00,VWS V14.01,2013-03-19 12:53:00,
2013-03-19 08:58:00,63.2,62.3,30.04,SE,126,2.0,5.0,97,0.00,,---,0.00,VWS V14.01,2013-03-19 12:58:00,
2013-03-19 09:00:00,63.2,62.3,30.04,East,83,3.0,5.0,97,0.00,,---,0.00,VWS V14.01,2013-03-19 13:00:00,
2013-03-19 09:03:00,63.2,62.3,30.03,East,88,3.0,5.0,97,0.00,,---,0.00,VWS V14.01,2013-03-19 13:03:00,
2013-03-19 09:08:00,63.2,62.3,30.03,East,91,4.0,5.0,97,0.00,,---,0.00,VWS V14.01,2013-03-19 13:08:00,
2013-03-19 09:10:00,63.2,62.3,30.03,ENE,63,4.0,5.0,97,0.00,,---,0.00,VWS V14.01,2013-03-19 13:10:00,
2013-03-19 09:13:00,63.1,62.2,30.02,ENE,67,1.0,4.0,97,0.00,,---,0.00,VWS V14.01,2013-03-19 13:13:00,
2013-03-19 09:18:00,63.1,62.2,30.01,East,84,2.0,4.0,97,0.00,,---,0.00,VWS V14.01,2013-03-19 13:18:00,
2013-03-19 09:20:00,63.1,62.2,30.01,ENE,75,0.0,4.0,97,0.00,,---,0.00,VWS V14.01,2013-03-19 13:20:00,
2013-03-19 09:23:00,63.2,62.3,30.02,ENE,67,2.0,2.0,97,0.00,,---,0.00,VWS V14.01,2013-03-19 13:23:00,
2013-03-19 09:28:00,63.3,62.4,30.01,ENE,77,2.0,5.0,97,0.00,,---,0.00,VWS V14.01,2013-03-19 13:28:00,
2013-03-19 09:30:00,63.3,62.4,30.01,East,101,3.0,5.0,97,0.00,,---,0.00,VWS V14.01,2013-03-19 13:30:00,
2013-03-19 09:33:00,63.6,62.7,30.00,ESE,102,2.0,4.0,97,0.00,,---,0.00,VWS V14.01,2013-03-19 13:33:00,
2013-03-19 09:38:00,63.7,62.8,29.99,East,81,1.0,5.0,97,0.00,,---,0.00,VWS V14.01,2013-03-19 13:38:00,
2013-03-19 09:40:00,63.7,62.8,29.99,ESE,103,1.0,5.0,97,0.00,,---,0.00,VWS V14.01,2013-03-19 13:40:00,
2013-03-19 09:43:00,63.9,63.0,29.99,East,85,3.0,5.0,97,0.00,,---,0.00,VWS V14.01,2013-03-19 13:43:00,
2013-03-19 09:48:00,64.5,63.6,29.99,ENE,72,3.0,5.0,97,0.00,,---,0.00,VWS V14.01,2013-03-19 13:48:00,
2013-03-19 09:50:00,64.6,63.7,29.99,ESE,103,2.0,6.0,97,0.00,,---,0.00,VWS V14.01,2013-03-19 13:50:00,
2013-03-19 09:53:00,64.9,63.7,29.99,ENE,73,2.0,4.0,96,0.00,,---,0.00,VWS V14.01,2013-03-19 13:53:00,
2013-03-19 09:58:00,65.3,64.1,29.99,ESE,103,2.0,4.0,96,0.00,,---,0.00,VWS V14.01,2013-03-19 13:58:00,
2013-03-19 10:00:00,65.3,64.1,29.99,NE,43,2.0,4.0,96,0.00,,---,0.00,VWS V14.01,2013-03-19 14:00:00,
2013-03-19 10:03:00,65.7,64.2,29.98,SE,136,2.0,5.0,95,0.00,,---,0.00,VWS V14.01,2013-03-19 14:03:00,
2013-03-19 10:08:00,66.2,64.4,29.98,East,99,5.0,7.0,94,0.00,,---,0.00,VWS V14.01,2013-03-19 14:08:00,
2013-03-19 10:10:00,66.2,64.4,29.98,ESE,118,2.0,7.0,94,0.00,,---,0.00,VWS V14.01,2013-03-19 14:10:00,
2013-03-19 10:13:00,66.6,64.5,29.98,South,180,1.0,4.0,93,0.00,,---,0.00,VWS V14.01,2013-03-19 14:13:00,
2013-03-19 10:18:00,67.6,65.5,29.98,SE,124,3.0,4.0,93,0.00,,---,0.00,VWS V14.01,2013-03-19 14:18:00,
2013-03-19 10:20:00,67.7,65.3,29.98,ENE,70,2.0,4.0,92,0.00,,---,0.00,VWS V14.01,2013-03-19 14:20:00,
2013-03-19 10:23:00,68.3,65.3,29.99,ESE,110,1.0,4.0,90,0.00,,---,0.00,VWS V14.01,2013-03-19 14:23:00,
2013-03-19 10:28:00,68.6,64.9,29.99,ENE,78,2.0,4.0,88,0.00,,---,0.00,VWS V14.01,2013-03-19 14:28:00,
2013-03-19 10:30:00,68.6,64.9,29.99,East,99,1.0,4.0,88,0.00,,---,0.00,VWS V14.01,2013-03-19 14:30:00,
2013-03-19 10:34:00,69.2,65.2,29.99,ENE,77,1.0,3.0,87,0.00,,---,0.00,VWS V14.01,2013-03-19 14:34:00,
2013-03-19 10:39:00,70.0,65.3,30.00,WSW,239,1.0,3.0,85,0.00,,---,0.00,VWS V14.01,2013-03-19 14:39:00,
2013-03-19 10:40:00,70.0,65.3,30.00,ENE,58,1.0,3.0,85,0.00,,---,0.00,VWS V14.01,2013-03-19 14:40:00,
2013-03-19 10:44:00,70.8,65.4,29.99,SW,229,0.0,1.0,83,0.00,,---,0.00,VWS V14.01,2013-03-19 14:44:00,
2013-03-19 10:49:00,71.6,65.8,29.99,ENE,78,1.0,1.0,82,0.00,,---,0.00,VWS V14.01,2013-03-19 14:49:00,
2013-03-19 10:50:00,71.6,65.8,29.99,ESE,116,0.0,2.0,82,0.00,,---,0.00,VWS V14.01,2013-03-19 14:50:00,
2013-03-19 10:54:00,72.2,65.3,29.98,ESE,109,2.0,5.0,79,0.00,,---,0.00,VWS V14.01,2013-03-19 14:54:00,
2013-03-19 10:59:00,73.0,66.1,29.98,ENE,75,0.0,0.0,79,0.00,,---,0.00,VWS V14.01,2013-03-19 14:59:00,
2013-03-19 11:00:00,72.9,66.0,29.98,ENE,75,0.0,5.0,79,0.00,,---,0.00,VWS V14.01,2013-03-19 15:00:00,
2013-03-19 11:04:00,74.1,66.4,29.98,WNW,293,0.0,1.0,77,0.00,,---,0.00,VWS V14.01,2013-03-19 15:04:00,
2013-03-19 11:09:00,75.2,66.3,29.99,ENE,77,1.0,1.0,74,0.00,,---,0.00,VWS V14.01,2013-03-19 15:09:00,
2013-03-19 11:10:00,75.2,66.7,29.99,East,99,0.0,1.0,75,0.00,,---,0.00,VWS V14.01,2013-03-19 15:10:00,
2013-03-19 11:14:00,75.9,65.4,29.99,West,267,0.0,2.0,70,0.00,,---,0.00,VWS V14.01,2013-03-19 15:14:00,
2013-03-19 11:19:00,76.3,66.6,29.99,NNW,333,1.0,2.0,72,0.00,,---,0.00,VWS V14.01,2013-03-19 15:19:00,
2013-03-19 11:20:00,76.2,66.5,29.99,SSW,207,1.0,2.0,72,0.00,,---,0.00,VWS V14.01,2013-03-19 15:20:00,
2013-03-19 11:24:00,75.9,66.2,29.99,West,272,0.0,4.0,72,0.00,,---,0.00,VWS V14.01,2013-03-19 15:24:00,
2013-03-19 11:29:00,76.4,66.3,30.00,WNW,287,1.0,2.0,71,0.00,,---,0.00,VWS V14.01,2013-03-19 15:29:00,
2013-03-19 11:30:00,76.4,66.3,29.99,WNW,291,2.0,4.0,71,0.00,,---,0.00,VWS V14.01,2013-03-19 15:30:00,
2013-03-19 11:34:00,76.7,65.8,30.00,West,278,0.0,3.0,69,0.00,,---,0.00,VWS V14.01,2013-03-19 15:34:00,
2013-03-19 11:39:00,77.3,66.3,30.00,North,8,0.0,0.0,69,0.00,,---,0.00,VWS V14.01,2013-03-19 15:39:00,
2013-03-19 11:40:00,77.3,66.8,30.00,North,8,0.0,3.0,70,0.00,,---,0.00,VWS V14.01,2013-03-19 15:40:00,
2013-03-19 11:44:00,77.9,66.5,30.00,WNW,283,0.0,3.0,68,0.00,,---,0.00,VWS V14.01,2013-03-19 15:44:00,
2013-03-19 11:49:00,78.1,65.8,30.00,WSW,252,0.0,0.0,66,0.00,,---,0.00,VWS V14.01,2013-03-19 15:49:00,
2013-03-19 11:50:00,78.2,65.9,30.00,WSW,252,0.0,4.0,66,0.00,,---,0.00,VWS V14.01,2013-03-19 15:50:00,
2013-03-19 11:54:00,77.9,65.6,29.99,West,273,1.0,2.0,66,0.00,,---,0.00,VWS V14.01,2013-03-19 15:54:00,
2013-03-19 11:59:00,77.6,65.3,29.99,WNW,294,0.0,0.0,66,0.00,,---,0.00,VWS V14.01,2013-03-19 15:59:00,
2013-03-19 12:00:00,77.6,65.3,29.99,WNW,294,0.0,2.0,66,0.00,,---,0.00,VWS V14.01,2013-03-19 16:00:00,
2013-03-19 12:04:00,78.0,66.2,29.98,West,281,4.0,4.0,67,0.00,,---,0.00,VWS V14.01,2013-03-19 16:04:00,
2013-03-19 12:09:00,78.7,66.0,29.98,ESE,111,0.0,1.0,65,0.00,,---,0.00,VWS V14.01,2013-03-19 16:09:00,
2013-03-19 12:10:00,78.7,66.0,29.98,ESE,112,1.0,4.0,65,0.00,,---,0.00,VWS V14.01,2013-03-19 16:10:00,
2013-03-19 12:14:00,79.8,66.6,29.99,WSW,246,1.0,2.0,64,0.00,,---,0.00,VWS V14.01,2013-03-19 16:14:00,
2013-03-19 12:19:00,80.3,66.1,29.98,NW,307,1.0,1.0,62,0.00,,---,0.00,VWS V14.01,2013-03-19 16:19:00,
2013-03-19 12:20:00,80.3,66.1,29.98,NW,308,1.0,3.0,62,0.00,,---,0.00,VWS V14.01,2013-03-19 16:20:00,
2013-03-19 12:24:00,80.6,65.9,29.98,NW,321,2.0,4.0,61,0.00,,---,0.00,VWS V14.01,2013-03-19 16:24:00,
2013-03-19 12:29:00,80.9,65.7,29.98,WSW,240,1.0,3.0,60,0.00,,---,0.00,VWS V14.01,2013-03-19 16:29:00,
2013-03-19 12:30:00,80.9,65.7,29.98,WSW,249,3.0,4.0,60,0.00,,---,0.00,VWS V14.01,2013-03-19 16:30:00,
2013-03-19 12:34:00,81.4,65.7,29.98,West,268,1.0,3.0,59,0.00,,---,0.00,VWS V14.01,2013-03-19 16:34:00,
2013-03-19 12:39:00,81.9,66.2,29.98,WSW,248,0.0,1.0,59,0.00,,---,0.00,VWS V14.01,2013-03-19 16:39:00,
2013-03-19 12:40:00,81.7,66.0,29.98,WSW,248,0.0,5.0,59,0.00,,---,0.00,VWS V14.01,2013-03-19 16:40:00,
2013-03-19 12:44:00,82.3,64.5,29.97,WSW,249,0.0,5.0,55,0.00,,---,0.00,VWS V14.01,2013-03-19 16:44:00,
2013-03-19 12:49:00,82.6,65.8,29.96,WNW,297,0.0,2.0,57,0.00,,---,0.00,VWS V14.01,2013-03-19 16:49:00,
2013-03-19 12:50:00,82.5,65.2,29.97,WNW,283,1.0,5.0,56,0.00,,---,0.00,VWS V14.01,2013-03-19 16:50:00,
2013-03-19 12:54:00,83.1,65.3,29.96,WSW,242,1.0,3.0,55,0.00,,---,0.00,VWS V14.01,2013-03-19 16:54:00,
2013-03-19 12:59:00,83.7,64.8,29.96,East,79,2.0,2.0,53,0.00,,---,0.00,VWS V14.01,2013-03-19 16:59:00,
2013-03-19 13:00:00,83.7,65.8,29.96,WNW,295,1.0,3.0,55,0.00,,---,0.00,VWS V14.01,2013-03-19 17:00:00,
2013-03-19 13:04:00,83.8,63.2,29.96,East,82,3.0,4.0,50,0.00,,---,0.00,VWS V14.01,2013-03-19 17:04:00,
2013-03-19 13:09:00,83.3,63.9,29.96,NW,326,0.0,3.0,52,0.00,,---,0.00,VWS V14.01,2013-03-19 17:09:00,
2013-03-19 13:10:00,83.2,63.8,29.96,North,5,2.0,4.0,52,0.00,,---,0.00,VWS V14.01,2013-03-19 17:10:00,
2013-03-19 13:14:00,83.7,63.7,29.96,WNW,288,0.0,3.0,51,0.00,,---,0.00,VWS V14.01,2013-03-19 17:14:00,
2013-03-19 13:19:00,84.6,63.9,29.95,SSW,212,2.0,4.0,50,0.00,,---,0.00,VWS V14.01,2013-03-19 17:19:00,
2013-03-19 13:20:00,84.5,63.3,29.95,North,5,2.0,3.0,49,0.00,,---,0.00,VWS V14.01,2013-03-19 17:20:00,
2013-03-19 13:24:00,84.9,63.6,29.96,NW,304,0.0,4.0,49,0.00,,---,0.00,VWS V14.01,2013-03-19 17:24:00,
2013-03-19 13:29:00,85.5,64.2,29.95,WSW,243,0.0,1.0,49,0.00,,---,0.00,VWS V14.01,2013-03-19 17:29:00,
2013-03-19 13:30:00,85.4,62.9,29.95,WSW,243,1.0,4.0,47,0.00,,---,0.00,VWS V14.01,2013-03-19 17:30:00,
2013-03-19 13:34:00,85.9,62.7,29.95,WNW,293,1.0,3.0,46,0.00,,---,0.00,VWS V14.01,2013-03-19 17:34:00,
2013-03-19 13:39:00,85.9,61.5,29.95,West,266,1.0,2.0,44,0.00,,---,0.00,VWS V14.01,2013-03-19 17:39:00,
2013-03-19 13:40:00,85.9,62.7,29.95,East,96,1.0,3.0,46,0.00,,---,0.00,VWS V14.01,2013-03-19 17:40:00,
2013-03-19 13:44:00,86.2,60.4,29.95,WSW,253,1.0,2.0,42,0.00,,---,0.00,VWS V14.01,2013-03-19 17:44:00,
2013-03-19 13:49:00,86.3,61.8,29.95,WSW,242,2.0,3.0,44,0.00,,---,0.00,VWS V14.01,2013-03-19 17:49:00,
2013-03-19 13:50:00,86.2,61.8,29.95,SE,142,0.0,2.0,44,0.00,,---,0.00,VWS V14.01,2013-03-19 17:50:00,
2013-03-19 13:54:00,85.8,61.4,29.94,WSW,252,2.0,4.0,44,0.00,,---,0.00,VWS V14.01,2013-03-19 17:54:00,
2013-03-19 14:00:00,85.8,62.0,29.94,WSW,243,2.0,5.0,45,0.00,,---,0.00,VWS V14.01,2013-03-19 18:00:00,
2013-03-19 14:05:00,85.6,59.9,29.94,ENE,65,1.0,5.0,42,0.00,,---,0.00,VWS V14.01,2013-03-19 18:05:00,
2013-03-19 14:10:00,84.7,59.1,29.94,West,276,3.0,4.0,42,0.00,,---,0.00,VWS V14.01,2013-03-19 18:10:00,
2013-03-19 14:15:00,83.9,59.0,29.93,WSW,253,2.0,5.0,43,0.00,,---,0.00,VWS V14.01,2013-03-19 18:15:00,
2013-03-19 14:20:00,83.6,59.4,29.94,ENE,60,0.0,2.0,44,0.00,,---,0.00,VWS V14.01,2013-03-19 18:20:00,
2013-03-19 14:25:00,83.6,58.8,29.94,West,281,2.0,2.0,43,0.00,,---,0.00,VWS V14.01,2013-03-19 18:25:00,
2013-03-19 14:30:00,83.6,60.0,29.93,West,267,1.0,1.0,45,0.00,,---,0.00,VWS V14.01,2013-03-19 18:30:00,
2013-03-19 14:35:00,84.2,59.3,29.93,ENE,77,3.0,3.0,43,0.00,,---,0.00,VWS V14.01,2013-03-19 18:35:00,
2013-03-19 14:40:00,84.2,60.0,29.93,East,89,1.0,5.0,44,0.00,,---,0.00,VWS V14.01,2013-03-19 18:40:00,
2013-03-19 14:45:00,84.3,59.4,29.93,East,79,0.0,5.0,43,0.00,,---,0.00,VWS V14.01,2013-03-19 18:45:00,
2013-03-19 14:50:00,84.6,59.0,29.93,ESE,104,0.0,1.0,42,0.00,,---,0.00,VWS V14.01,2013-03-19 18:50:00,
2013-03-19 14:55:00,84.5,59.6,29.92,West,267,2.0,3.0,43,0.00,,---,0.00,VWS V14.01,2013-03-19 18:55:00,
2013-03-19 15:00:00,84.6,60.9,29.92,West,269,1.0,1.0,45,0.00,,---,0.00,VWS V14.01,2013-03-19 19:00:00,
2013-03-19 15:05:00,84.9,59.9,29.92,WSW,246,2.0,5.0,43,0.00,,---,0.00,VWS V14.01,2013-03-19 19:05:00,
2013-03-19 15:10:00,84.4,59.5,29.92,West,276,0.0,2.0,43,0.00,,---,0.00,VWS V14.01,2013-03-19 19:10:00,
2013-03-19 15:15:00,84.2,60.0,29.91,WSW,245,0.0,3.0,44,0.00,,---,0.00,VWS V14.01,2013-03-19 19:15:00,
2013-03-19 15:20:00,84.1,61.1,29.91,NNW,340,0.0,1.0,46,0.00,,---,0.00,VWS V14.01,2013-03-19 19:20:00,
2013-03-19 15:25:00,84.0,62.2,29.91,East,95,2.0,2.0,48,0.00,,---,0.00,VWS V14.01,2013-03-19 19:25:00,
2013-03-19 15:30:00,83.7,61.3,29.91,East,101,1.0,2.0,47,0.00,,---,0.00,VWS V14.01,2013-03-19 19:30:00,
2013-03-19 15:35:00,83.3,61.6,29.91,West,264,0.0,3.0,48,0.00,,---,0.00,VWS V14.01,2013-03-19 19:35:00,
2013-03-19 15:40:00,83.3,62.2,29.91,West,260,2.0,3.0,49,0.00,,---,0.00,VWS V14.01,2013-03-19 19:40:00,
2013-03-19 15:45:00,83.5,62.3,29.90,West,259,2.0,3.0,49,0.00,,---,0.00,VWS V14.01,2013-03-19 19:45:00,
2013-03-19 15:50:00,83.9,62.1,29.90,East,84,1.0,4.0,48,0.00,,---,0.00,VWS V14.01,2013-03-19 19:50:00,
2013-03-19 15:55:00,84.2,62.4,29.90,East,101,0.0,4.0,48,0.00,,---,0.00,VWS V14.01,2013-03-19 19:55:00,
2013-03-19 16:00:00,85.0,61.9,29.90,WSW,241,1.0,3.0,46,0.00,,---,0.00,VWS V14.01,2013-03-19 20:00:00,
2013-03-19 16:05:00,85.8,63.3,29.90,East,79,2.0,3.0,47,0.00,,---,0.00,VWS V14.01,2013-03-19 20:05:00,
2013-03-19 16:10:00,85.9,62.1,29.90,East,82,4.0,5.0,45,0.00,,---,0.00,VWS V14.01,2013-03-19 20:10:00,
2013-03-19 16:15:00,86.0,63.4,29.90,NW,319,0.0,5.0,47,0.00,,---,0.00,VWS V14.01,2013-03-19 20:15:00,
2013-03-19 16:20:00,86.5,62.0,29.89,WSW,245,3.0,3.0,44,0.00,,---,0.00,VWS V14.01,2013-03-19 20:20:00,
2013-03-19 16:25:00,86.6,62.8,29.89,West,270,1.0,4.0,45,0.00,,---,0.00,VWS V14.01,2013-03-19 20:25:00,
2013-03-19 16:30:00,87.4,61.5,29.89,WNW,290,3.0,6.0,42,0.00,,---,0.00,VWS V14.01,2013-03-19 20:30:00,
2013-03-19 16:35:00,86.2,61.1,29.89,West,262,1.0,7.0,43,0.00,,---,0.00,VWS V14.01,2013-03-19 20:35:00,
2013-03-19 16:40:00,85.7,61.3,29.89,WSW,240,1.0,1.0,44,0.00,,---,0.00,VWS V14.01,2013-03-19 20:40:00,
2013-03-19 16:45:00,85.7,61.3,29.89,WSW,250,1.0,5.0,44,0.00,,---,0.00,VWS V14.01,2013-03-19 20:45:00,
2013-03-19 16:50:00,85.5,61.8,29.89,West,266,1.0,6.0,45,0.00,,---,0.00,VWS V14.01,2013-03-19 20:50:00,
2013-03-19 16:55:00,85.6,63.1,29.89,West,268,0.0,7.0,47,0.00,,---,0.00,VWS V14.01,2013-03-19 20:55:00,
2013-03-19 17:00:00,85.8,61.4,29.89,WSW,243,0.0,5.0,44,0.00,,---,0.00,VWS V14.01,2013-03-19 21:00:00,
2013-03-19 17:05:00,85.9,61.5,29.89,East,82,0.0,5.0,44,0.00,,---,0.00,VWS V14.01,2013-03-19 21:05:00,
2013-03-19 17:10:00,86.0,62.2,29.89,West,260,1.0,4.0,45,0.00,,---,0.00,VWS V14.01,2013-03-19 21:10:00,
2013-03-19 17:15:00,86.1,62.3,29.89,WSW,252,2.0,4.0,45,0.00,,---,0.00,VWS V14.01,2013-03-19 21:15:00,
2013-03-19 17:20:00,85.8,61.4,29.89,West,276,0.0,1.0,44,0.00,,---,0.00,VWS V14.01,2013-03-19 21:20:00,
2013-03-19 17:25:00,84.9,61.8,29.89,WNW,283,1.0,2.0,46,0.00,,---,0.00,VWS V14.01,2013-03-19 21:25:00,
2013-03-19 17:30:00,84.4,62.0,29.89,West,280,0.0,3.0,47,0.00,,---,0.00,VWS V14.01,2013-03-19 21:30:00,
2013-03-19 17:35:00,84.7,61.7,29.89,West,259,0.0,3.0,46,0.00,,---,0.00,VWS V14.01,2013-03-19 21:35:00,
2013-03-19 17:40:00,84.2,61.2,29.89,WSW,256,1.0,2.0,46,0.00,,---,0.00,VWS V14.01,2013-03-19 21:40:00,
2013-03-19 17:46:00,83.4,61.1,29.89,West,263,0.0,2.0,47,0.00,,---,0.00,VWS V14.01,2013-03-19 21:46:00,
2013-03-19 17:50:00,83.1,61.4,29.89,West,263,0.0,2.0,48,0.00,,---,0.00,VWS V14.01,2013-03-19 21:50:00,
2013-03-19 17:51:00,83.0,61.9,29.89,West,263,0.0,0.0,49,0.00,,---,0.00,VWS V14.01,2013-03-19 21:51:00,
2013-03-19 17:56:00,82.7,61.0,29.90,WNW,288,1.0,2.0,48,0.00,,---,0.00,VWS V14.01,2013-03-19 21:56:00,
2013-03-19 18:00:00,82.5,60.8,29.89,West,276,0.0,2.0,48,0.00,,---,0.00,VWS V14.01,2013-03-19 22:00:00,
2013-03-19 18:01:00,82.6,61.5,29.89,West,269,1.0,1.0,49,0.00,,---,0.00,VWS V14.01,2013-03-19 22:01:00,
2013-03-19 18:06:00,83.1,60.8,29.89,West,268,0.0,2.0,47,0.00,,---,0.00,VWS V14.01,2013-03-19 22:06:00,
2013-03-19 18:10:00,83.7,61.3,29.89,West,266,0.0,2.0,47,0.00,,---,0.00,VWS V14.01,2013-03-19 22:10:00,
2013-03-19 18:11:00,84.2,61.8,29.89,West,266,0.0,0.0,47,0.00,,---,0.00,VWS V14.01,2013-03-19 22:11:00,
2013-03-19 18:16:00,85.0,61.3,29.89,WSW,250,1.0,2.0,45,0.00,,---,0.00,VWS V14.01,2013-03-19 22:16:00,
2013-03-19 18:20:00,84.9,61.2,29.89,WSW,249,2.0,3.0,45,0.00,,---,0.00,VWS V14.01,2013-03-19 22:20:00,
2013-03-19 18:21:00,84.7,60.4,29.89,West,272,0.0,3.0,44,0.00,,---,0.00,VWS V14.01,2013-03-19 22:21:00,
2013-03-19 18:26:00,84.2,60.6,29.89,WSW,250,0.0,3.0,45,0.00,,---,0.00,VWS V14.01,2013-03-19 22:26:00,
2013-03-19 18:30:00,83.7,60.1,29.89,West,273,0.0,3.0,45,0.00,,---,0.00,VWS V14.01,2013-03-19 22:30:00,
2013-03-19 18:31:00,83.3,61.0,29.89,West,263,0.0,1.0,47,0.00,,---,0.00,VWS V14.01,2013-03-19 22:31:00,
2013-03-19 18:37:00,82.5,60.3,29.90,WSW,256,0.0,3.0,47,0.00,,---,0.00,VWS V14.01,2013-03-19 22:37:00,
2013-03-19 18:40:00,82.2,60.6,29.90,West,264,1.0,3.0,48,0.00,,---,0.00,VWS V14.01,2013-03-19 22:40:00,
2013-03-19 18:42:00,81.9,60.9,29.90,West,273,1.0,1.0,49,0.00,,---,0.00,VWS V14.01,2013-03-19 22:42:00,
2013-03-19 18:47:00,81.5,59.9,29.90,West,277,2.0,3.0,48,0.00,,---,0.00,VWS V14.01,2013-03-19 22:47:00,
2013-03-19 18:50:00,81.4,59.8,29.90,WSW,257,1.0,3.0,48,0.00,,---,0.00,VWS V14.01,2013-03-19 22:50:00,
2013-03-19 18:52:00,81.3,59.8,29.90,WSW,256,0.0,1.0,48,0.00,,---,0.00,VWS V14.01,2013-03-19 22:52:00,
2013-03-19 18:57:00,81.1,60.2,29.90,ESE,110,0.0,1.0,49,0.00,,---,0.00,VWS V14.01,2013-03-19 22:57:00,
2013-03-19 19:00:00,81.0,60.1,29.90,ESE,110,0.0,1.0,49,0.00,,---,0.00,VWS V14.01,2013-03-19 23:00:00,
2013-03-19 19:02:00,80.9,59.4,29.90,West,276,1.0,1.0,48,0.00,,---,0.00,VWS V14.01,2013-03-19 23:02:00,
2013-03-19 19:07:00,80.7,59.8,29.90,West,276,0.0,1.0,49,0.00,,---,0.00,VWS V14.01,2013-03-19 23:07:00,
2013-03-19 19:10:00,80.7,59.8,29.90,West,276,0.0,1.0,49,0.00,,---,0.00,VWS V14.01,2013-03-19 23:10:00,
2013-03-19 19:12:00,80.8,59.9,29.90,West,278,0.0,1.0,49,0.00,,---,0.00,VWS V14.01,2013-03-19 23:12:00,
2013-03-19 19:17:00,80.9,60.0,29.90,West,278,0.0,1.0,49,0.00,,---,0.00,VWS V14.01,2013-03-19 23:17:00,
2013-03-19 19:20:00,80.7,59.8,29.90,West,261,0.0,1.0,49,0.00,,---,0.00,VWS V14.01,2013-03-19 23:20:00,
2013-03-19 19:22:00,80.4,59.5,29.90,West,266,0.0,0.0,49,0.00,,---,0.00,VWS V14.01,2013-03-19 23:22:00,
2013-03-19 19:27:00,79.9,59.0,29.90,WSW,257,0.0,3.0,49,0.00,,---,0.00,VWS V14.01,2013-03-19 23:27:00,
2013-03-19 19:30:00,79.8,59.0,29.90,SSW,211,0.0,3.0,49,0.00,,---,0.00,VWS V14.01,2013-03-19 23:30:00,
2013-03-19 19:32:00,79.6,59.3,29.90,WSW,246,1.0,2.0,50,0.00,,---,0.00,VWS V14.01,2013-03-19 23:32:00,
2013-03-19 19:37:00,79.2,59.5,29.91,WSW,248,0.0,2.0,51,0.00,,---,0.00,VWS V14.01,2013-03-19 23:37:00,
2013-03-19 19:40:00,79.1,59.4,29.91,WSW,248,0.0,2.0,51,0.00,,---,0.00,VWS V14.01,2013-03-19 23:40:00,
2013-03-19 19:42:00,78.7,59.1,29.91,WSW,248,0.0,0.0,51,0.00,,---,0.00,VWS V14.01,2013-03-19 23:42:00,
2013-03-19 19:47:00,78.2,59.2,29.91,WSW,252,0.0,2.0,52,0.00,,---,0.00,VWS V14.01,2013-03-19 23:47:00,
2013-03-19 19:50:00,78.1,59.1,29.91,West,264,0.0,2.0,52,0.00,,---,0.00,VWS V14.01,2013-03-19 23:50:00,
2013-03-19 19:52:00,77.8,59.3,29.91,West,259,0.0,1.0,53,0.00,,---,0.00,VWS V14.01,2013-03-19 23:52:00,
2013-03-19 19:57:00,77.5,59.0,29.91,WSW,250,0.0,1.0,53,0.00,,---,0.00,VWS V14.01,2013-03-19 23:57:00,
2013-03-19 20:00:00,77.3,59.4,29.91,WSW,250,0.0,1.0,54,0.00,,---,0.00,VWS V14.01,2013-03-20 00:00:00,
2013-03-19 20:02:00,77.0,59.1,29.92,WSW,250,0.0,1.0,54,0.00,,---,0.00,VWS V14.01,2013-03-20 00:02:00,
2013-03-19 20:07:00,76.7,58.8,29.92,West,267,0.0,1.0,54,0.00,,---,0.00,VWS V14.01,2013-03-20 00:07:00,
2013-03-19 20:10:00,76.6,59.2,29.92,West,263,0.0,1.0,55,0.00,,---,0.00,VWS V14.01,2013-03-20 00:10:00,
2013-03-19 20:12:00,76.5,59.2,29.92,WSW,252,0.0,0.0,55,0.00,,---,0.00,VWS V14.01,2013-03-20 00:12:00,
2013-03-19 20:17:00,76.2,58.9,29.92,WSW,243,0.0,0.0,55,0.00,,---,0.00,VWS V14.01,2013-03-20 00:17:00,
2013-03-19 20:20:00,76.2,58.9,29.92,WSW,243,0.0,0.0,55,0.00,,---,0.00,VWS V14.01,2013-03-20 00:20:00,
2013-03-19 20:22:00,76.0,59.2,29.92,WSW,243,0.0,0.0,56,0.00,,---,0.00,VWS V14.01,2013-03-20 00:22:00,
2013-03-19 20:27:00,75.7,58.9,29.92,WSW,243,0.0,0.0,56,0.00,,---,0.00,VWS V14.01,2013-03-20 00:27:00,
2013-03-19 20:30:00,75.6,59.3,29.92,WSW,243,0.0,0.0,57,0.00,,---,0.00,VWS V14.01,2013-03-20 00:30:00,
2013-03-19 20:33:00,75.4,59.1,29.92,WSW,243,0.0,0.0,57,0.00,,---,0.00,VWS V14.01,2013-03-20 00:33:00,
2013-03-19 20:38:00,75.1,59.3,29.92,WSW,250,0.0,0.0,58,0.00,,---,0.00,VWS V14.01,2013-03-20 00:38:00,
2013-03-19 20:40:00,75.1,59.3,29.92,WSW,249,0.0,0.0,58,0.00,,---,0.00,VWS V14.01,2013-03-20 00:40:00,
2013-03-19 20:43:00,74.9,59.6,29.92,WSW,249,0.0,0.0,59,0.00,,---,0.00,VWS V14.01,2013-03-20 00:43:00,
2013-03-19 20:48:00,74.6,59.3,29.92,WSW,250,0.0,0.0,59,0.00,,---,0.00,VWS V14.01,2013-03-20 00:48:00,
2013-03-19 20:50:00,74.5,59.7,29.93,WSW,249,0.0,0.0,60,0.00,,---,0.00,VWS V14.01,2013-03-20 00:50:00,
2013-03-19 20:53:00,74.3,59.5,29.92,WSW,250,0.0,0.0,60,0.00,,---,0.00,VWS V14.01,2013-03-20 00:53:00,
2013-03-19 20:58:00,74.0,59.7,29.93,WSW,251,0.0,0.0,61,0.00,,---,0.00,VWS V14.01,2013-03-20 00:58:00,
2013-03-19 21:00:00,74.0,59.7,29.93,WSW,249,0.0,0.0,61,0.00,,---,0.00,VWS V14.01,2013-03-20 01:00:00,
2013-03-19 21:03:00,73.8,59.5,29.93,WSW,249,0.0,0.0,61,0.00,,---,0.00,VWS V14.01,2013-03-20 01:03:00,
2013-03-19 21:08:00,73.6,59.3,29.93,WSW,250,0.0,0.0,61,0.00,,---,0.00,VWS V14.01,2013-03-20 01:08:00,
2013-03-19 21:10:00,73.5,59.2,29.93,WSW,249,0.0,0.0,61,0.00,,---,0.00,VWS V14.01,2013-03-20 01:10:00,
2013-03-19 21:13:00,73.2,59.4,29.93,WSW,249,0.0,0.0,62,0.00,,---,0.00,VWS V14.01,2013-03-20 01:13:00,
2013-03-19 21:18:00,72.8,59.5,29.93,WSW,250,0.0,0.0,63,0.00,,---,0.00,VWS V14.01,2013-03-20 01:18:00,
2013-03-19 21:20:00,72.8,59.9,29.93,WSW,250,0.0,0.0,64,0.00,,---,0.00,VWS V14.01,2013-03-20 01:20:00,
2013-03-19 21:23:00,72.4,60.0,29.93,WSW,249,0.0,0.0,65,0.00,,---,0.00,VWS V14.01,2013-03-20 01:23:00,
2013-03-19 21:28:00,71.9,59.5,29.93,WSW,249,0.0,0.0,65,0.00,,---,0.00,VWS V14.01,2013-03-20 01:28:00,
2013-03-19 21:30:00,71.8,59.4,29.93,WSW,249,0.0,0.0,65,0.00,,---,0.00,VWS V14.01,2013-03-20 01:30:00,
2013-03-19 21:33:00,71.6,59.7,29.93,WSW,249,0.0,0.0,66,0.00,,---,0.00,VWS V14.01,2013-03-20 01:33:00,
2013-03-19 21:38:00,71.4,59.9,29.93,WSW,249,0.0,0.0,67,0.00,,---,0.00,VWS V14.01,2013-03-20 01:38:00,
2013-03-19 21:40:00,71.3,59.8,29.93,WSW,249,0.0,0.0,67,0.00,,---,0.00,VWS V14.01,2013-03-20 01:40:00,
2013-03-19 21:43:00,71.1,59.6,29.94,WSW,249,0.0,0.0,67,0.00,,---,0.00,VWS V14.01,2013-03-20 01:43:00,
2013-03-19 21:48:00,71.2,60.5,29.94,WSW,249,0.0,0.0,69,0.00,,---,0.00,VWS V14.01,2013-03-20 01:48:00,
2013-03-19 21:50:00,71.2,60.5,29.94,ESE,122,0.0,0.0,69,0.00,,---,0.00,VWS V14.01,2013-03-20 01:50:00,
2013-03-19 21:53:00,71.1,60.4,29.94,ESE,122,0.0,0.0,69,0.00,,---,0.00,VWS V14.01,2013-03-20 01:53:00,
2013-03-19 21:58:00,70.9,60.2,29.94,ESE,122,0.0,0.0,69,0.00,,---,0.00,VWS V14.01,2013-03-20 01:58:00,
2013-03-19 22:00:00,70.9,60.2,29.94,ESE,122,0.0,0.0,69,0.00,,---,0.00,VWS V14.01,2013-03-20 02:00:00,
2013-03-19 22:03:00,71.1,60.0,29.95,ESE,103,0.0,0.0,68,0.00,,---,0.00,VWS V14.01,2013-03-20 02:03:00,
2013-03-19 22:08:00,71.5,60.0,29.95,ESE,105,0.0,0.0,67,0.00,,---,0.00,VWS V14.01,2013-03-20 02:08:00,
2013-03-19 22:10:00,71.5,60.0,29.95,ESE,105,0.0,0.0,67,0.00,,---,0.00,VWS V14.01,2013-03-20 02:10:00,
2013-03-19 22:13:00,71.6,60.5,29.95,ESE,103,0.0,0.0,68,0.00,,---,0.00,VWS V14.01,2013-03-20 02:13:00,
2013-03-19 22:18:00,71.8,60.7,29.95,ESE,103,0.0,0.0,68,0.00,,---,0.00,VWS V14.01,2013-03-20 02:18:00,
2013-03-19 22:20:00,71.7,60.6,29.95,East,98,1.0,1.0,68,0.00,,---,0.00,VWS V14.01,2013-03-20 02:20:00,
2013-03-19 22:23:00,71.8,60.7,29.95,East,98,0.0,1.0,68,0.00,,---,0.00,VWS V14.01,2013-03-20 02:23:00,
2013-03-19 22:28:00,71.8,60.7,29.95,East,89,0.0,1.0,68,0.00,,---,0.00,VWS V14.01,2013-03-20 02:28:00,
2013-03-19 22:30:00,71.8,60.7,29.95,East,89,0.0,1.0,68,0.00,,---,0.00,VWS V14.01,2013-03-20 02:30:00,
2013-03-19 22:33:00,71.8,60.7,29.95,East,89,0.0,0.0,68,0.00,,---,0.00,VWS V14.01,2013-03-20 02:33:00,
2013-03-19 22:38:00,71.6,60.9,29.96,East,89,0.0,0.0,69,0.00,,---,0.00,VWS V14.01,2013-03-20 02:38:00,
2013-03-19 22:40:00,71.6,60.9,29.96,East,89,0.0,0.0,69,0.00,,---,0.00,VWS V14.01,2013-03-20 02:40:00,
2013-03-19 22:43:00,71.3,60.6,29.96,ENE,72,0.0,0.0,69,0.00,,---,0.00,VWS V14.01,2013-03-20 02:43:00,
2013-03-19 22:48:00,70.9,60.2,29.96,East,79,1.0,3.0,69,0.00,,---,0.00,VWS V14.01,2013-03-20 02:48:00,
2013-03-19 22:50:00,70.9,60.2,29.96,East,79,0.0,3.0,69,0.00,,---,0.00,VWS V14.01,2013-03-20 02:50:00,
2013-03-19 22:53:00,70.7,60.5,29.97,East,84,0.0,2.0,70,0.00,,---,0.00,VWS V14.01,2013-03-20 02:53:00,
2013-03-19 22:58:00,70.4,60.2,29.97,East,84,0.0,2.0,70,0.00,,---,0.00,VWS V14.01,2013-03-20 02:58:00,
2013-03-19 23:00:00,70.4,60.2,29.97,East,84,1.0,2.0,70,0.00,,---,0.00,VWS V14.01,2013-03-20 03:00:00,
2013-03-19 23:03:00,70.3,60.5,29.97,ENE,78,0.0,2.0,71,0.00,,---,0.00,VWS V14.01,2013-03-20 03:03:00,
2013-03-19 23:08:00,70.4,60.6,29.97,ENE,77,0.0,3.0,71,0.00,,---,0.00,VWS V14.01,2013-03-20 03:08:00,
2013-03-19 23:10:00,70.3,60.5,29.97,ENE,78,1.0,3.0,71,0.00,,---,0.00,VWS V14.01,2013-03-20 03:10:00,
2013-03-19 23:13:00,70.3,60.5,29.96,ENE,77,0.0,1.0,71,0.00,,---,0.00,VWS V14.01,2013-03-20 03:13:00,
2013-03-19 23:18:00,70.0,60.6,29.97,East,81,0.0,2.0,72,0.00,,---,0.00,VWS V14.01,2013-03-20 03:18:00,
2013-03-19 23:20:00,70.0,60.6,29.97,East,81,0.0,2.0,72,0.00,,---,0.00,VWS V14.01,2013-03-20 03:20:00,
2013-03-19 23:23:00,69.8,60.4,29.97,East,80,0.0,1.0,72,0.00,,---,0.00,VWS V14.01,2013-03-20 03:23:00,
2013-03-19 23:28:00,69.6,60.6,29.96,East,81,0.0,1.0,73,0.00,,---,0.00,VWS V14.01,2013-03-20 03:28:00,
2013-03-19 23:30:00,69.6,60.6,29.96,East,81,0.0,1.0,73,0.00,,---,0.00,VWS V14.01,2013-03-20 03:30:00,
2013-03-19 23:33:00,69.3,60.7,29.97,East,80,0.0,1.0,74,0.00,,---,0.00,VWS V14.01,2013-03-20 03:33:00,
2013-03-19 23:38:00,69.1,60.5,29.97,East,81,0.0,1.0,74,0.00,,---,0.00,VWS V14.01,2013-03-20 03:38:00,
2013-03-19 23:40:00,69.1,60.5,29.97,East,81,0.0,1.0,74,0.00,,---,0.00,VWS V14.01,2013-03-20 03:40:00,
2013-03-19 23:43:00,69.1,60.8,29.98,East,81,0.0,0.0,75,0.00,,---,0.00,VWS V14.01,2013-03-20 03:43:00,
2013-03-19 23:48:00,69.1,60.8,29.98,East,81,0.0,0.0,75,0.00,,---,0.00,VWS V14.01,2013-03-20 03:48:00,
2013-03-19 23:50:00,69.1,60.8,29.98,East,81,0.0,0.0,75,0.00,,---,0.00,VWS V14.01,2013-03-20 03:50:00,
2013-03-19 23:53:00,69.2,61.0,29.98,East,81,0.0,0.0,75,0.00,,---,0.00,VWS V14.01,2013-03-20 03:53:00,
2013-03-19 23:58:00,69.3,61.0,29.97,East,82,0.0,2.0,75,0.00,,---,0.00,VWS V14.01,2013-03-20 03:58:00,